Terminal Aerodrome Forecast
Issued by NWS

Home | Current Version | Previous Version | Text Only | Print | Product List | Glossary On
Versions: 1 2 3 4 5 6 7 8 9 10 11 12
000
FTUS45 KTFX 221723
TAFLWT
TAF
KLWT 221723Z 2218/2318 28010KT P6SM BKN070 OVC090
     FM222100 34008KT P6SM BKN060 OVC080
     FM230100 36007KT P6SM VCSH SCT070 BKN080
     FM231700 34009KT P6SM -SNRA SCT010 OVC015=

USA.gov is the U.S. government's official web portal to all federal, state and local government web resources and services.